Time;durP1;ratioP1;P1;durP2;ratioP2;P2;SDS_P1;SDS_P2;PMS_P1;PMS_P2;Temp;Humidity;BMP_temperature;BMP_pressure;BME280_temperature;BME280_humidity;BME280_pressure;Samples;Min_cycle;Max_cycle;Signal;HPM_P1;HPM_P2
2023/07/29 00:01:17;;;;;;;;;0.00;0.00;;;;;19.29;74.25;100705.13;4987118;28;8851;-67
2023/07/29 00:03:44;;;;;;;;;0.00;0.00;;;;;19.25;74.30;100696.63;4983507;28;8846;-68
2023/07/29 00:06:11;;;;;;;;;1.25;1.00;;;;;19.27;74.23;100694.44;4988906;28;8893;-68
2023/07/29 00:08:37;;;;;;;;;0.00;0.00;;;;;19.24;74.23;100676.72;4968654;28;8856;-67
2023/07/29 00:11:04;;;;;;;;;1.00;1.00;;;;;19.21;73.92;100674.47;4989733;28;8866;-68
2023/07/29 00:13:30;;;;;;;;;0.25;0.25;;;;;19.17;73.84;100678.78;4986998;28;8879;-68
2023/07/29 00:15:57;;;;;;;;;1.00;0.00;;;;;19.17;74.06;100673.34;4973065;28;8855;-67
2023/07/29 00:18:23;;;;;;;;;0.00;0.00;;;;;19.18;73.90;100674.16;4987348;28;8863;-67
2023/07/29 00:20:50;;;;;;;;;1.00;1.00;;;;;19.15;73.96;100666.47;4972232;28;8833;-68
2023/07/29 00:23:18;;;;;;;;;2.00;2.00;;;;;19.14;74.14;100679.31;4988447;28;8846;-68
2023/07/29 00:25:45;;;;;;;;;0.00;0.00;;;;;19.16;73.92;100674.44;4969812;28;8851;-68
2023/07/29 00:28:12;;;;;;;;;0.00;0.00;;;;;19.16;73.86;100668.97;4990890;28;8856;-68
2023/07/29 00:30:38;;;;;;;;;0.00;0.00;;;;;19.20;74.06;100670.09;4974321;28;8853;-68
2023/07/29 00:33:05;;;;;;;;;0.25;0.25;;;;;19.21;73.83;100671.75;4988691;28;9513;-68
2023/07/29 00:35:31;;;;;;;;;0.00;0.00;;;;;19.20;73.85;100661.91;4989500;28;8851;-67
2023/07/29 00:37:59;;;;;;;;;0.00;0.00;;;;;19.18;73.62;100655.88;4972751;28;9038;-67
2023/07/29 00:40:28;;;;;;;;;0.75;0.75;;;;;19.17;73.81;100653.41;4986566;28;8992;-68
2023/07/29 00:42:54;;;;;;;;;0.00;0.00;;;;;19.18;73.91;100658.59;4986650;28;8844;-67
2023/07/29 00:45:21;;;;;;;;;0.00;0.00;;;;;19.20;73.72;100656.47;4989137;28;8858;-67
2023/07/29 00:47:48;;;;;;;;;0.25;0.25;;;;;19.17;74.08;100647.97;4980284;28;8853;-69
2023/07/29 00:50:17;;;;;;;;;0.25;0.25;;;;;19.16;73.99;100654.47;4987653;28;8945;-67
2023/07/29 00:52:43;;;;;;;;;0.00;0.00;;;;;19.18;74.02;100653.16;4972110;28;8861;-68
2023/07/29 00:55:10;;;;;;;;;0.00;0.00;;;;;19.15;73.71;100647.38;4982997;28;8861;-67
2023/07/29 00:57:37;;;;;;;;;0.00;0.00;;;;;19.16;73.93;100649.03;4983094;28;8878;-68
2023/07/29 01:00:05;;;;;;;;;0.25;0.00;;;;;19.15;73.83;100642.75;4983887;28;8851;-67
2023/07/29 01:02:32;;;;;;;;;0.00;0.00;;;;;19.17;73.88;100635.13;4967646;28;8855;-68
2023/07/29 01:05:00;;;;;;;;;0.75;0.75;;;;;19.18;74.14;100631.31;4973522;28;8866;-68
2023/07/29 01:07:54;;;;;;;;;0.00;0.00;;;;;19.21;74.15;100636.28;4985622;28;8886;-67
2023/07/29 01:10:38;;;;;;;;;0.00;0.00;;;;;19.23;73.84;100633.28;4987563;28;8897;-67
2023/07/29 01:13:20;;;;;;;;;1.00;0.00;;;;;19.24;73.93;100637.66;4971000;28;8851;-67
2023/07/29 01:15:55;;;;;;;;;0.00;0.00;;;;;19.23;73.86;100623.19;4978229;28;8954;-68
2023/07/29 01:18:29;;;;;;;;;0.00;0.00;;;;;19.23;73.94;100627.81;4985288;28;8850;-68
2023/07/29 01:21:03;;;;;;;;;1.00;1.00;;;;;19.15;74.05;100622.81;4984617;28;8858;-68
2023/07/29 01:23:32;;;;;;;;;0.00;0.00;;;;;19.14;73.95;100626.63;4985931;28;8878;-67
2023/07/29 01:25:59;;;;;;;;;1.00;1.00;;;;;19.13;74.16;100627.72;4987255;28;8874;-67
2023/07/29 01:28:26;;;;;;;;;0.50;0.00;;;;;19.12;73.76;100631.50;4970833;28;8845;-67
2023/07/29 01:31:06;;;;;;;;;0.00;0.00;;;;;19.14;74.14;100634.81;4970349;28;8843;-68
2023/07/29 01:33:44;;;;;;;;;1.50;0.75;;;;;19.12;74.01;100639.69;4972251;28;8878;-68
2023/07/29 01:36:20;;;;;;;;;0.75;0.25;;;;;19.11;73.88;100635.31;4989996;28;9538;-68
2023/07/29 01:38:48;;;;;;;;;0.00;0.00;;;;;19.09;74.19;100627.41;4968722;28;8843;-67
2023/07/29 01:41:17;;;;;;;;;1.00;1.00;;;;;19.11;74.08;100621.69;4971078;28;8847;-68
2023/07/29 01:43:44;;;;;;;;;0.00;0.00;;;;;19.06;74.16;100627.91;4983380;28;9018;-67
2023/07/29 01:46:11;;;;;;;;;0.25;0.25;;;;;19.03;74.43;100628.41;4969721;28;8841;-67
2023/07/29 01:48:39;;;;;;;;;1.00;0.50;;;;;18.96;73.76;100616.91;4966297;28;8863;-67
2023/07/29 01:51:07;;;;;;;;;1.00;1.00;;;;;18.93;73.44;100614.69;4985192;28;8871;-67
2023/07/29 01:53:34;;;;;;;;;0.00;0.00;;;;;18.95;73.36;100617.97;4972280;28;8851;-68
2023/07/29 01:56:01;;;;;;;;;0.00;0.00;;;;;18.96;73.19;100625.09;4972885;28;8851;-68
2023/07/29 01:58:28;;;;;;;;;0.75;0.00;;;;;18.94;73.07;100617.13;4967995;28;8842;-67
2023/07/29 02:00:55;;;;;;;;;0.00;0.00;;;;;18.94;72.90;100619.88;4969495;28;8878;-68
2023/07/29 02:03:21;;;;;;;;;1.00;1.00;;;;;18.89;72.60;100611.63;4969846;28;8882;-68
2023/07/29 02:05:48;;;;;;;;;0.00;0.00;;;;;18.90;72.69;100602.38;4990120;28;8856;-68
2023/07/29 02:08:15;;;;;;;;;1.00;1.00;;;;;18.90;72.62;100612.44;4969190;28;8891;-67
2023/07/29 02:10:44;;;;;;;;;1.00;1.00;;;;;18.85;72.62;100610.50;4970862;28;8878;-68
2023/07/29 02:13:12;;;;;;;;;0.00;0.00;;;;;18.87;72.50;100611.03;4984564;28;8848;-68
2023/07/29 02:15:39;;;;;;;;;1.00;1.00;;;;;18.87;72.72;100602.88;4987294;28;8835;-68
2023/07/29 02:18:07;;;;;;;;;0.25;0.25;;;;;18.88;72.34;100606.41;4968919;28;8924;-68
2023/07/29 02:20:34;;;;;;;;;1.00;1.00;;;;;18.88;72.65;100593.63;4978403;28;8875;-67
2023/07/29 02:23:00;;;;;;;;;0.00;0.00;;;;;18.87;72.61;100588.41;5058396;23;8894;-68
2023/07/29 02:25:27;;;;;;;;;1.75;0.00;;;;;18.86;72.80;100594.94;5022376;28;8840;-68
2023/07/29 02:27:53;;;;;;;;;1.00;1.00;;;;;18.85;72.72;100588.69;5024376;28;8959;-68
2023/07/29 02:30:21;;;;;;;;;0.00;0.00;;;;;18.84;72.75;100597.94;5014457;28;8874;-68
2023/07/29 02:32:47;;;;;;;;;1.00;1.00;;;;;18.82;73.04;100600.09;5033236;28;8965;-68
2023/07/29 02:35:14;;;;;;;;;0.00;0.00;;;;;18.84;72.93;100602.53;5017785;28;8834;-68
2023/07/29 02:37:41;;;;;;;;;1.00;1.00;;;;;18.83;73.07;100603.63;5015945;28;9811;-68
2023/07/29 02:40:08;;;;;;;;;1.00;0.25;;;;;18.80;73.35;100602.25;5013183;28;8888;-68
2023/07/29 02:42:34;;;;;;;;;0.00;0.00;;;;;18.78;73.26;100607.94;5031039;28;8830;-69
2023/07/29 02:45:01;;;;;;;;;1.00;1.00;;;;;18.76;73.42;100612.84;5032072;28;8830;-68
2023/07/29 02:47:27;;;;;;;;;1.00;1.00;;;;;18.74;73.35;100603.25;5012828;28;8857;-69
2023/07/29 02:49:54;;;;;;;;;1.75;1.00;;;;;18.70;73.79;100600.22;5009260;28;8923;-68
2023/07/29 02:52:20;;;;;;;;;0.75;0.75;;;;;18.70;73.96;100605.66;5014150;28;8869;-68
2023/07/29 02:54:47;;;;;;;;;1.75;1.75;;;;;18.74;73.93;100598.63;5030284;28;8853;-68
2023/07/29 02:57:13;;;;;;;;;1.00;1.00;;;;;18.74;73.95;100590.44;5028043;28;8860;-68
2023/07/29 02:59:40;;;;;;;;;2.00;1.00;;;;;18.76;73.96;100595.66;5013935;28;9008;-67
2023/07/29 03:02:06;;;;;;;;;0.00;0.00;;;;;18.74;74.17;100590.44;5014010;28;8838;-67
2023/07/29 03:04:33;;;;;;;;;1.00;1.00;;;;;18.70;74.16;100580.31;5003588;28;8836;-67
2023/07/29 03:07:01;;;;;;;;;0.00;0.00;;;;;18.66;74.27;100581.88;5017087;28;9003;-68
2023/07/29 03:09:27;;;;;;;;;1.00;1.00;;;;;18.64;74.40;100573.94;5025086;28;8857;-68
2023/07/29 03:11:54;;;;;;;;;0.50;0.50;;;;;18.65;74.57;100566.59;5013320;28;10101;-69
2023/07/29 03:14:21;;;;;;;;;0.00;0.00;;;;;18.65;74.40;100564.69;5031928;28;8911;-69
2023/07/29 03:16:47;;;;;;;;;1.00;1.00;;;;;18.62;74.54;100567.91;4994332;28;8850;-69
2023/07/29 03:19:15;;;;;;;;;1.00;1.00;;;;;18.62;74.46;100576.09;5031620;28;8851;-69
2023/07/29 03:21:42;;;;;;;;;0.75;0.75;;;;;18.62;74.64;100567.09;5011825;28;8878;-69
2023/07/29 03:24:09;;;;;;;;;3.25;1.25;;;;;18.60;74.75;100561.91;5030797;28;8846;-68
2023/07/29 03:26:35;;;;;;;;;1.00;1.00;;;;;18.57;74.90;100556.94;5013075;28;8830;-67
2023/07/29 03:29:02;;;;;;;;;2.00;2.00;;;;;18.57;75.05;100553.41;5013875;28;8866;-67
2023/07/29 03:31:29;;;;;;;;;5.00;2.00;;;;;18.53;75.02;100558.53;5010892;28;8849;-67
2023/07/29 03:33:55;;;;;;;;;3.00;1.75;;;;;18.50;75.16;100567.22;5010858;28;8884;-67
2023/07/29 03:36:22;;;;;;;;;0.50;0.50;;;;;18.49;75.20;100571.03;5021356;28;8857;-68
2023/07/29 03:38:48;;;;;;;;;1.00;1.00;;;;;18.47;75.20;100557.66;5023953;28;8850;-67
2023/07/29 03:41:15;;;;;;;;;1.75;1.75;;;;;18.48;75.33;100570.22;5012700;28;8837;-68
2023/07/29 03:43:42;;;;;;;;;1.00;1.00;;;;;18.50;75.27;100559.03;5009818;28;8834;-68
2023/07/29 03:46:08;;;;;;;;;0.50;0.50;;;;;18.45;75.45;100562.53;5012787;28;8821;-68
2023/07/29 03:48:39;;;;;;;;;1.00;1.00;;;;;18.42;75.49;100573.13;5010828;28;8857;-69
2023/07/29 03:51:05;;;;;;;;;2.00;2.00;;;;;18.37;75.44;100576.59;5013678;28;9027;-69
2023/07/29 03:53:32;;;;;;;;;1.00;1.00;;;;;18.36;75.64;100590.50;5009590;28;8933;-69
2023/07/29 03:55:58;;;;;;;;;2.00;2.00;;;;;18.32;75.78;100589.34;5031186;28;8868;-67
2023/07/29 03:58:25;;;;;;;;;1.00;1.00;;;;;18.33;75.94;100588.25;5029639;28;8840;-68
2023/07/29 04:00:52;;;;;;;;;1.75;1.75;;;;;18.30;76.01;100586.84;5010894;28;8929;-68
2023/07/29 04:03:19;;;;;;;;;2.00;2.00;;;;;18.21;76.02;100583.72;5013194;28;8829;-68
2023/07/29 04:05:47;;;;;;;;;0.25;0.25;;;;;18.22;76.24;100581.84;5012385;28;8834;-68
2023/07/29 04:08:13;;;;;;;;;2.25;1.50;;;;;18.24;76.14;100585.16;5012499;28;8866;-68
2023/07/29 04:10:40;;;;;;;;;1.25;1.25;;;;;18.15;76.52;100573.84;5007268;28;8860;-67
2023/07/29 04:13:06;;;;;;;;;4.00;2.00;;;;;18.17;76.67;100570.88;5006605;28;8964;-68
2023/07/29 04:15:33;;;;;;;;;2.75;1.25;;;;;18.16;76.65;100571.94;5014547;28;8831;-68
2023/07/29 04:17:59;;;;;;;;;2.00;2.00;;;;;18.19;76.47;100583.19;5028092;28;8870;-67
2023/07/29 04:20:26;;;;;;;;;1.75;1.75;;;;;18.19;76.61;100595.94;5011238;28;8866;-68
2023/07/29 04:22:53;;;;;;;;;1.50;0.50;;;;;18.19;76.72;100590.50;4997017;28;8880;-68
2023/07/29 04:25:19;;;;;;;;;1.00;1.00;;;;;18.21;76.66;100599.25;5014291;28;8879;-68
2023/07/29 04:27:46;;;;;;;;;3.00;1.50;;;;;18.18;76.83;100581.50;5030054;28;9593;-68
2023/07/29 04:30:12;;;;;;;;;3.75;3.75;;;;;18.20;76.63;100575.81;5012364;28;8845;-69
2023/07/29 04:32:39;;;;;;;;;2.25;2.25;;;;;18.18;76.47;100580.69;5008015;28;9557;-68
2023/07/29 04:35:07;;;;;;;;;2.00;1.50;;;;;18.14;76.87;100572.19;5011778;28;8857;-68
2023/07/29 04:37:36;;;;;;;;;2.00;2.00;;;;;18.15;77.10;100583.91;5012286;28;8829;-68
2023/07/29 04:40:02;;;;;;;;;2.50;2.25;;;;;18.14;77.13;100576.81;5008554;28;8825;-68
2023/07/29 04:42:29;;;;;;;;;1.00;1.00;;;;;18.16;77.10;100591.03;5011815;28;8850;-68
2023/07/29 04:44:55;;;;;;;;;1.50;1.25;;;;;18.17;77.09;100576.31;5011338;28;8846;-68
2023/07/29 04:47:22;;;;;;;;;1.25;1.25;;;;;18.18;77.27;100578.78;5008989;28;9557;-68
2023/07/29 04:49:51;;;;;;;;;1.25;1.25;;;;;18.18;77.27;100584.22;4994515;28;8971;-68
2023/07/29 04:52:19;;;;;;;;;1.75;1.00;;;;;18.19;77.37;100575.00;5011190;28;8837;-69
2023/07/29 04:54:46;;;;;;;;;2.50;1.00;;;;;18.18;77.25;100581.50;5027298;28;8841;-69
2023/07/29 04:57:13;;;;;;;;;1.50;1.50;;;;;18.20;77.35;100579.38;5011432;28;9027;-69
2023/07/29 04:59:39;;;;;;;;;1.00;1.00;;;;;18.24;77.32;100590.59;5012019;28;8936;-68
2023/07/29 05:02:06;;;;;;;;;2.25;1.75;;;;;18.26;77.19;100588.44;5010630;28;8868;-68
2023/07/29 05:04:32;;;;;;;;;1.00;1.00;;;;;18.25;77.20;100589.50;5010568;28;8834;-69
2023/07/29 05:06:59;;;;;;;;;1.00;1.00;;;;;18.27;77.09;100590.06;5027795;28;8852;-68
2023/07/29 05:09:25;;;;;;;;;3.00;1.50;;;;;18.26;77.16;100589.25;5010868;28;8911;-68
2023/07/29 05:11:54;;;;;;;;;3.00;1.75;;;;;18.23;77.09;100588.91;5003367;28;8861;-68
2023/07/29 05:14:21;;;;;;;;;1.75;1.75;;;;;18.22;77.29;100587.28;5012025;28;8865;-68
2023/07/29 05:16:47;;;;;;;;;3.00;2.50;;;;;18.23;77.72;100592.50;5026757;28;8854;-67
2023/07/29 05:19:14;;;;;;;;;2.50;2.50;;;;;18.23;77.38;100597.94;5006994;28;8861;-68
2023/07/29 05:21:40;;;;;;;;;1.00;1.00;;;;;18.25;77.43;100597.69;5031887;28;8885;-67
2023/07/29 05:24:07;;;;;;;;;3.00;1.50;;;;;18.22;77.56;100585.38;5011510;28;8915;-67
2023/07/29 05:26:34;;;;;;;;;5.00;3.00;;;;;18.20;77.59;100587.53;5011182;28;8850;-67
2023/07/29 05:29:01;;;;;;;;;1.25;1.25;;;;;18.23;77.72;100587.03;5010914;28;8962;-67
2023/07/29 05:31:27;;;;;;;;;2.00;1.00;;;;;18.27;77.60;100595.53;5010312;28;8851;-67
2023/07/29 05:33:54;;;;;;;;;1.50;1.50;;;;;18.27;77.63;100590.06;5009709;28;8939;-66
2023/07/29 05:36:21;;;;;;;;;3.00;3.00;;;;;18.21;77.88;100585.63;5003106;28;8836;-66
2023/07/29 05:38:47;;;;;;;;;3.75;2.75;;;;;18.18;78.15;100586.13;5011455;28;9535;-69
2023/07/29 05:41:14;;;;;;;;;4.75;2.00;;;;;18.20;78.22;100587.53;5010095;28;8870;-66
2023/07/29 05:43:43;;;;;;;;;1.00;1.00;;;;;18.21;78.55;100585.63;5028872;28;8869;-66
2023/07/29 05:46:10;;;;;;;;;1.75;1.75;;;;;18.24;78.45;100585.16;5013755;28;8864;-67
2023/07/29 05:48:36;;;;;;;;;2.00;2.00;;;;;18.27;78.58;100585.47;5014758;28;9555;-67
2023/07/29 05:51:05;;;;;;;;;6.00;3.00;;;;;18.32;78.46;100583.88;5010514;28;9012;-67
2023/07/29 05:53:32;;;;;;;;;2.00;2.00;;;;;18.35;78.27;100580.63;5008306;28;8868;-68
2023/07/29 05:55:58;;;;;;;;;4.00;2.50;;;;;18.40;78.63;100578.81;5027248;28;8869;-66
2023/07/29 05:58:25;;;;;;;;;3.25;3.25;;;;;18.41;78.33;100585.09;5007779;28;8848;-67
2023/07/29 06:00:52;;;;;;;;;2.00;2.00;;;;;18.45;78.54;100588.97;5029471;28;8860;-68
2023/07/29 06:03:19;;;;;;;;;5.00;3.75;;;;;18.50;78.35;100592.56;5009392;28;8882;-68
2023/07/29 06:05:46;;;;;;;;;4.00;3.00;;;;;18.53;78.21;100589.34;5021224;28;9027;-67
2023/07/29 06:08:13;;;;;;;;;4.50;4.25;;;;;18.49;78.11;100590.09;5009231;28;8854;-67
2023/07/29 06:10:39;;;;;;;;;3.25;2.25;;;;;18.50;78.42;100584.38;5012490;28;8869;-68
2023/07/29 06:13:06;;;;;;;;;2.25;2.25;;;;;18.55;78.39;100586.34;5013839;28;8920;-68
2023/07/29 06:15:32;;;;;;;;;3.00;3.00;;;;;18.53;78.14;100585.81;5013823;28;8838;-68
2023/07/29 06:17:59;;;;;;;;;4.00;3.50;;;;;18.52;78.31;100597.78;5014038;28;8838;-67
2023/07/29 06:20:26;;;;;;;;;4.00;4.00;;;;;18.51;78.41;100587.94;5010985;28;8849;-67
2023/07/29 06:22:52;;;;;;;;;1.00;1.00;;;;;18.53;78.49;100591.25;5012883;28;8837;-67
2023/07/29 06:25:19;;;;;;;;;2.75;2.75;;;;;18.55;78.64;100591.81;5012515;28;9577;-68
2023/07/29 06:27:46;;;;;;;;;1.75;1.75;;;;;18.58;78.58;100601.41;4996204;28;8856;-68
2023/07/29 06:30:12;;;;;;;;;1.33;1.00;;;;;18.59;78.72;100603.84;5011180;28;9021;-68
2023/07/29 06:32:39;;;;;;;;;2.75;2.00;;;;;18.60;78.60;100601.97;5014896;28;8838;-70
2023/07/29 06:35:06;;;;;;;;;5.75;3.75;;;;;18.62;78.37;100600.63;5032706;28;8837;-67
2023/07/29 06:37:33;;;;;;;;;2.50;2.50;;;;;18.61;78.75;100604.44;5031975;28;8865;-68
2023/07/29 06:39:59;;;;;;;;;3.75;3.75;;;;;18.57;78.65;100603.28;5029430;28;8848;-68
2023/07/29 06:42:26;;;;;;;;;2.00;2.00;;;;;18.58;79.25;100618.56;5030920;28;8849;-68
2023/07/29 06:44:53;;;;;;;;;7.00;5.00;;;;;18.59;79.00;100605.75;5032383;28;8845;-68
2023/07/29 06:47:19;;;;;;;;;3.75;3.75;;;;;18.61;78.99;100612.63;5032722;28;8813;-70
2023/07/29 06:49:46;;;;;;;;;4.50;3.00;;;;;18.64;78.96;100611.28;5044601;22;8898;-69
2023/07/29 06:52:13;;;;;;;;;3.25;2.75;;;;;18.62;79.00;100611.53;4993475;28;8877;-68
2023/07/29 06:54:40;;;;;;;;;2.75;1.75;;;;;18.61;79.52;100615.34;4976045;28;8848;-69
2023/07/29 06:57:06;;;;;;;;;2.00;2.00;;;;;18.66;79.42;100612.69;4977793;28;8857;-68
2023/07/29 06:59:33;;;;;;;;;2.00;2.00;;;;;18.70;79.33;100618.47;4988762;28;8853;-67
2023/07/29 07:02:00;;;;;;;;;2.25;2.00;;;;;18.74;79.18;100619.63;4997346;28;8827;-68
2023/07/29 07:04:26;;;;;;;;;3.00;3.00;;;;;18.71;79.24;100618.22;4988031;28;8843;-67
2023/07/29 07:06:53;;;;;;;;;3.50;3.25;;;;;18.72;79.29;100611.72;5028110;28;8863;-70
2023/07/29 07:09:19;;;;;;;;;1.00;1.00;;;;;18.76;79.78;100610.13;5014257;28;8925;-68
2023/07/29 07:11:46;;;;;;;;;3.75;3.25;;;;;18.80;79.36;100606.88;5015862;28;8849;-68
2023/07/29 07:14:12;;;;;;;;;6.50;3.50;;;;;18.78;79.64;100604.41;5004483;28;8950;-68
2023/07/29 07:16:39;;;;;;;;;3.25;3.25;;;;;18.85;79.55;100610.50;5021658;28;8845;-68
2023/07/29 07:19:06;;;;;;;;;2.00;2.00;;;;;18.89;79.46;100608.09;5018200;28;8835;-69
2023/07/29 07:21:33;;;;;;;;;1.75;1.75;;;;;18.95;79.53;100598.88;5012231;28;8862;-68
2023/07/29 07:23:59;;;;;;;;;6.25;4.00;;;;;18.91;79.28;100606.72;5005724;28;8988;-68
2023/07/29 07:26:25;;;;;;;;;2.50;2.50;;;;;18.89;79.51;100599.91;4995323;28;8829;-68
2023/07/29 07:28:52;;;;;;;;;1.00;0.75;;;;;18.92;79.90;100605.69;5011152;28;8909;-68
2023/07/29 07:31:18;;;;;;;;;1.25;1.00;;;;;18.95;79.81;100607.06;5012021;28;8860;-67
2023/07/29 07:33:46;;;;;;;;;1.75;1.75;;;;;18.94;79.77;100608.13;5013583;28;8913;-68
2023/07/29 07:36:12;;;;;;;;;2.00;2.00;;;;;19.02;79.80;100610.41;5012371;28;8825;-71
2023/07/29 07:38:39;;;;;;;;;2.00;2.00;;;;;19.06;79.50;100608.00;5018171;28;8860;-69
2023/07/29 07:41:06;;;;;;;;;2.00;2.00;;;;;19.06;79.30;100610.72;5018369;28;8831;-69
2023/07/29 07:43:32;;;;;;;;;1.00;1.00;;;;;19.09;79.33;100608.31;4992369;28;9611;-70
2023/07/29 07:46:00;;;;;;;;;1.25;0.00;;;;;19.13;79.38;100614.09;5021159;28;8852;-69
2023/07/29 07:48:27;;;;;;;;;1.00;1.00;;;;;19.17;79.22;100615.22;5013858;28;8840;-69
2023/07/29 07:50:57;;;;;;;;;1.00;1.00;;;;;19.13;79.27;100609.44;5031259;28;8848;-69
2023/07/29 07:53:25;;;;;;;;;1.50;1.00;;;;;19.09;79.54;100613.78;5017844;28;8843;-69
2023/07/29 07:55:52;;;;;;;;;1.25;1.25;;;;;19.10;79.99;100617.31;4997961;28;8839;-69
2023/07/29 07:58:18;;;;;;;;;1.00;1.00;;;;;19.13;80.31;100625.81;4998284;28;8851;-69
2023/07/29 08:00:45;;;;;;;;;3.00;1.75;;;;;19.12;80.40;100613.25;5011386;28;8846;-69
2023/07/29 08:03:11;;;;;;;;;2.50;2.50;;;;;19.03;80.63;100620.22;4997702;28;8819;-68
2023/07/29 08:05:38;;;;;;;;;1.50;1.50;;;;;19.00;80.79;100628.94;5011544;28;8935;-68
2023/07/29 08:08:04;;;;;;;;;3.00;3.00;;;;;18.98;80.92;100625.63;5011151;28;8862;-68
2023/07/29 08:10:30;;;;;;;;;2.00;2.00;;;;;18.97;81.15;100630.28;5003888;28;8865;-68
2023/07/29 08:12:57;;;;;;;;;2.25;2.25;;;;;19.00;81.06;100623.50;5009965;28;9604;-69
2023/07/29 08:15:23;;;;;;;;;1.50;1.50;;;;;19.06;80.78;100625.19;5025818;28;9283;-68
2023/07/29 08:17:50;;;;;;;;;1.50;1.50;;;;;19.10;80.58;100628.22;5031366;28;8825;-67
2023/07/29 08:20:17;;;;;;;;;1.00;1.00;;;;;19.16;80.22;100630.78;5023870;28;8835;-69
2023/07/29 08:22:43;;;;;;;;;0.50;0.50;;;;;19.20;79.91;100629.19;5013589;28;8859;-68
2023/07/29 08:25:10;;;;;;;;;1.50;1.00;;;;;19.19;79.42;100632.97;5002373;28;8889;-68
2023/07/29 08:27:36;;;;;;;;;2.50;1.25;;;;;19.21;78.52;100635.47;5019210;28;8851;-68
2023/07/29 08:30:03;;;;;;;;;0.25;0.25;;;;;19.24;77.80;100637.66;4994458;28;8858;-68
2023/07/29 08:32:30;;;;;;;;;1.50;1.00;;;;;19.25;77.22;100645.59;5009657;28;9689;-68
2023/07/29 08:34:56;;;;;;;;;1.25;0.00;;;;;19.26;76.57;100647.25;4994691;28;8831;-69
2023/07/29 08:37:23;;;;;;;;;1.00;1.00;;;;;19.24;76.32;100645.84;5006615;28;8846;-67
2023/07/29 08:39:49;;;;;;;;;3.00;1.00;;;;;19.23;76.12;100642.28;5011018;28;8847;-68
2023/07/29 08:42:17;;;;;;;;;2.25;1.00;;;;;19.21;76.30;100640.91;5010967;28;8839;-67
2023/07/29 08:44:45;;;;;;;;;1.00;1.00;;;;;19.18;75.67;100639.50;4993346;28;8914;-68
2023/07/29 08:47:15;;;;;;;;;0.00;0.00;;;;;19.21;75.73;100641.72;5010086;28;8948;-67
2023/07/29 08:49:43;;;;;;;;;1.00;1.00;;;;;19.27;75.86;100645.31;4991075;28;8973;-68
2023/07/29 08:52:10;;;;;;;;;1.00;1.00;;;;;19.32;75.71;100644.56;5005680;28;9653;-69
2023/07/29 08:54:37;;;;;;;;;0.00;0.00;;;;;19.34;75.58;100647.88;4999271;28;8850;-68
2023/07/29 08:57:04;;;;;;;;;2.00;2.00;;;;;19.33;75.57;100649.78;5007278;28;8848;-69
2023/07/29 08:59:31;;;;;;;;;1.00;1.00;;;;;19.32;75.48;100644.56;5010191;28;8835;-68
2023/07/29 09:01:58;;;;;;;;;0.25;0.25;;;;;19.32;75.42;100647.28;5010509;28;8847;-69
2023/07/29 09:04:25;;;;;;;;;1.00;0.00;;;;;19.35;75.50;100649.50;5010351;28;8862;-68
2023/07/29 09:06:53;;;;;;;;;0.25;0.25;;;;;19.39;75.61;100654.19;4991020;28;8852;-69
2023/07/29 09:09:21;;;;;;;;;1.00;1.00;;;;;19.39;75.67;100662.38;4976783;28;8866;-69
2023/07/29 09:11:48;;;;;;;;;1.25;1.25;;;;;19.23;75.42;100666.03;5009416;28;8827;-69
2023/07/29 09:14:15;;;;;;;;;1.00;1.00;;;;;19.24;75.56;100662.22;5009175;28;9555;-69
2023/07/29 09:16:41;;;;;;;;;1.00;1.00;;;;;19.25;75.45;100663.88;5008909;28;8909;-68
2023/07/29 09:19:08;;;;;;;;;2.75;2.75;;;;;19.22;76.39;100664.38;5010538;28;8873;-67
2023/07/29 09:21:38;;;;;;;;;2.00;1.00;;;;;19.24;76.78;100668.53;5010308;28;9690;-68
2023/07/29 09:24:07;;;;;;;;;1.00;1.00;;;;;19.28;77.26;100668.81;5015360;28;9621;-68
2023/07/29 09:26:34;;;;;;;;;1.25;1.00;;;;;19.31;77.34;100667.47;5009968;28;9009;-69
2023/07/29 09:29:01;;;;;;;;;1.75;1.00;;;;;19.29;77.28;100669.66;5010340;28;8866;-68
2023/07/29 09:31:29;;;;;;;;;1.00;1.00;;;;;19.37;77.14;100663.75;4984192;28;8858;-69
2023/07/29 09:34:01;;;;;;;;;1.50;1.50;;;;;19.47;76.97;100661.09;5007506;28;8847;-68
2023/07/29 09:36:31;;;;;;;;;1.50;1.50;;;;;19.54;76.42;100659.00;4991051;28;8848;-69
2023/07/29 09:38:58;;;;;;;;;2.50;1.50;;;;;19.53;75.93;100657.34;5007913;28;8817;-68
2023/07/29 09:41:26;;;;;;;;;2.25;2.25;;;;;19.54;75.47;100659.00;4992612;28;9831;-70
2023/07/29 09:43:58;;;;;;;;;2.25;2.25;;;;;19.56;74.91;100650.53;4992059;28;8931;-68
2023/07/29 09:46:32;;;;;;;;;1.75;1.75;;;;;19.58;74.58;100657.38;4992023;28;8823;-68
2023/07/29 09:49:01;;;;;;;;;1.00;1.00;;;;;19.63;74.41;100649.28;5011690;28;8828;-69
2023/07/29 09:51:27;;;;;;;;;2.00;2.00;;;;;19.61;73.95;100651.44;5012758;28;8975;-68
2023/07/29 09:53:55;;;;;;;;;2.00;1.00;;;;;19.66;73.77;100651.50;5014244;28;8835;-68
2023/07/29 09:56:26;;;;;;;;;2.00;2.00;;;;;19.72;73.31;100636.78;5014071;28;8831;-67
2023/07/29 09:58:55;;;;;;;;;2.00;2.00;;;;;19.79;73.19;100638.50;5014091;28;8827;-67
2023/07/29 10:01:23;;;;;;;;;3.25;2.25;;;;;19.84;72.32;100641.25;5002428;28;8852;-68
2023/07/29 10:03:50;;;;;;;;;2.75;2.75;;;;;19.88;72.28;100640.47;4977736;28;8825;-67
2023/07/29 10:06:18;;;;;;;;;2.25;2.25;;;;;19.93;72.07;100645.16;5004380;28;8846;-68
2023/07/29 10:08:45;;;;;;;;;1.00;1.00;;;;;20.05;71.83;100644.97;5013825;28;9563;-68
2023/07/29 10:11:11;;;;;;;;;2.50;2.00;;;;;20.00;71.14;100651.22;5008524;28;8955;-70
2023/07/29 10:13:38;;;;;;;;;0.00;0.00;;;;;19.97;70.95;100654.47;4994466;28;8883;-68
2023/07/29 10:16:05;;;;;;;;;1.00;1.00;;;;;19.92;70.63;100662.63;4998645;28;8843;-68
2023/07/29 10:18:35;;;;;;;;;1.25;1.25;;;;;19.86;70.49;100661.78;5005217;28;8832;-68
2023/07/29 10:21:03;;;;;;;;;1.25;1.25;;;;;19.86;70.50;100648.13;5019720;28;8911;-68
2023/07/29 10:23:33;;;;;;;;;3.00;2.00;;;;;19.89;70.97;100652.22;5022709;28;8936;-68
2023/07/29 10:26:06;;;;;;;;;2.00;2.00;;;;;19.93;70.86;100653.34;5016149;28;8821;-68
2023/07/29 10:28:34;;;;;;;;;1.25;1.25;;;;;19.92;70.71;100651.69;5024606;28;8821;-68
2023/07/29 10:31:03;;;;;;;;;1.00;1.00;;;;;19.95;70.44;100656.66;5005361;28;8858;-67
2023/07/29 10:33:33;;;;;;;;;2.00;1.00;;;;;19.96;70.61;100669.22;5010327;28;8860;-68
2023/07/29 10:36:00;;;;;;;;;2.00;1.25;;;;;19.91;70.71;100661.00;5009558;28;8847;-69
2023/07/29 10:38:27;;;;;;;;;2.75;2.75;;;;;19.87;70.82;100659.88;5024608;28;8837;-68
2023/07/29 10:41:00;;;;;;;;;0.75;0.75;;;;;19.83;70.94;100667.75;5019572;28;8912;-67
2023/07/29 10:43:37;;;;;;;;;1.00;1.00;;;;;19.85;71.27;100660.13;5013300;28;8827;-68
2023/07/29 10:46:20;;;;;;;;;2.00;2.00;;;;;19.89;71.84;100657.69;4997538;28;8831;-67
2023/07/29 10:48:50;;;;;;;;;2.00;2.00;;;;;19.99;72.34;100657.78;4998990;28;8836;-68
2023/07/29 10:51:29;;;;;;;;;2.25;2.25;;;;;20.06;72.14;100663.84;4996643;28;8839;-68
2023/07/29 10:53:58;;;;;;;;;1.00;1.00;;;;;20.08;72.02;100669.84;5005009;28;8871;-68
2023/07/29 10:56:33;;;;;;;;;2.00;2.00;;;;;20.04;71.55;100668.72;5011541;28;8816;-68
2023/07/29 10:59:33;;;;;;;;;0.00;0.00;;;;;20.08;71.54;100666.31;5007073;28;8839;-69
2023/07/29 11:02:01;;;;;;;;;1.25;1.00;;;;;20.07;71.54;100665.50;5008538;28;8909;-67
2023/07/29 11:04:30;;;;;;;;;1.50;0.50;;;;;20.12;71.23;100667.44;5012864;28;8835;-67
2023/07/29 11:07:03;;;;;;;;;2.00;2.00;;;;;20.10;71.06;100670.44;4988596;28;8845;-67
2023/07/29 11:09:42;;;;;;;;;1.50;1.50;;;;;20.06;71.10;100673.97;4975519;28;9681;-68
2023/07/29 11:12:45;;;;;;;;;2.50;1.50;;;;;20.08;71.42;100669.03;4975675;28;8868;-68
2023/07/29 11:15:23;;;;;;;;;2.25;1.00;;;;;19.97;71.35;100666.25;4992997;28;8951;-68
2023/07/29 11:17:58;;;;;;;;;2.25;2.25;;;;;19.96;71.17;100666.47;4994333;28;8860;-68
2023/07/29 11:20:31;;;;;;;;;2.00;2.00;;;;;19.89;71.38;100665.88;4992770;28;8834;-68
2023/07/29 11:23:03;;;;;;;;;2.00;1.00;;;;;19.88;71.29;100665.06;4994911;28;8865;-69
2023/07/29 11:25:31;;;;;;;;;1.00;1.00;;;;;19.90;71.84;100665.63;4993940;28;8869;-67
2023/07/29 11:27:59;;;;;;;;;3.00;3.00;;;;;19.93;71.82;100664.28;5012573;28;8865;-67
2023/07/29 11:30:29;;;;;;;;;2.00;2.00;;;;;19.98;71.69;100661.59;5012019;28;8843;-68
2023/07/29 11:32:56;;;;;;;;;0.50;0.50;;;;;20.06;71.49;100665.75;5012424;28;8843;-67
2023/07/29 11:35:23;;;;;;;;;1.00;1.00;;;;;20.14;71.34;100663.38;4991904;28;8844;-67
2023/07/29 11:37:52;;;;;;;;;3.00;1.50;;;;;20.21;71.40;100661.19;4992534;28;8860;-67